createdAt,value
2018-09-27T00:01:10.813Z,10.42
2018-09-27T00:03:38.909Z,10.41
2018-09-27T00:06:06.984Z,10.39
2018-09-27T00:08:35.083Z,10.36
2018-09-27T00:11:03.215Z,10.34
2018-09-27T00:13:31.306Z,10.32
2018-09-27T00:15:59.384Z,10.31
2018-09-27T00:18:27.537Z,10.30
2018-09-27T00:20:55.626Z,10.29
2018-09-27T00:23:23.708Z,10.27
2018-09-27T00:25:51.809Z,10.25
2018-09-27T00:28:19.886Z,10.23
2018-09-27T00:30:47.965Z,10.21
2018-09-27T00:33:16.058Z,10.21
2018-09-27T00:35:44.134Z,10.19
2018-09-27T00:38:12.232Z,10.16
2018-09-27T00:40:40.310Z,10.14
2018-09-27T00:43:08.407Z,10.13
2018-09-27T00:45:36.487Z,10.13
2018-09-27T00:48:04.572Z,10.09
2018-09-27T00:50:32.653Z,10.06
2018-09-27T00:53:00.756Z,10.04
2018-09-27T00:55:28.918Z,10.01
2018-09-27T00:57:57.008Z,9.99
2018-09-27T01:00:25.081Z,9.97
2018-09-27T01:02:53.178Z,9.95
2018-09-27T01:05:21.259Z,9.93
2018-09-27T01:07:49.480Z,9.92
2018-09-27T01:10:17.561Z,9.91
2018-09-27T01:12:45.651Z,9.89
2018-09-27T01:15:13.724Z,9.86
2018-09-27T01:17:41.852Z,9.82
2018-09-27T01:20:09.957Z,9.79
2018-09-27T01:22:38.191Z,9.76
2018-09-27T01:25:06.321Z,9.73
2018-09-27T01:27:34.425Z,9.70
2018-09-27T01:30:02.752Z,9.66
2018-09-27T01:32:30.796Z,9.63
2018-09-27T01:34:58.892Z,9.63
2018-09-27T01:37:26.968Z,9.61
2018-09-27T01:39:55.156Z,9.64
2018-09-27T01:42:23.271Z,9.70
2018-09-27T01:44:51.320Z,9.77
2018-09-27T01:47:19.400Z,9.85
2018-09-27T01:49:47.492Z,9.92
2018-09-27T01:52:15.597Z,9.99
2018-09-27T01:54:43.684Z,10.05
2018-09-27T01:57:11.778Z,10.10
2018-09-27T01:59:39.865Z,10.15
2018-09-27T02:02:08.005Z,10.20
2018-09-27T02:04:36.131Z,10.23
2018-09-27T02:07:04.216Z,10.24
2018-09-27T02:09:32.310Z,10.28
2018-09-27T02:12:00.547Z,10.31
2018-09-27T02:14:28.634Z,10.34
2018-09-27T02:16:56.720Z,10.37
2018-09-27T02:19:24.816Z,10.39
2018-09-27T02:21:52.938Z,10.43
2018-09-27T02:24:21.039Z,10.46
2018-09-27T02:26:49.138Z,10.48
2018-09-27T02:29:17.270Z,10.49
2018-09-27T02:31:45.357Z,10.50
2018-09-27T02:34:13.496Z,10.50
2018-09-27T02:36:41.541Z,10.51
2018-09-27T02:39:10.703Z,10.52
2018-09-27T02:41:39.370Z,10.53
2018-09-27T02:44:07.664Z,10.55
2018-09-27T02:46:35.759Z,10.55
2018-09-27T02:49:03.864Z,10.55
2018-09-27T02:51:32.033Z,10.55
2018-09-27T02:54:00.118Z,10.56
2018-09-27T02:56:28.270Z,10.56
2018-09-27T02:58:56.362Z,10.54
2018-09-27T03:01:24.459Z,10.54
2018-09-27T03:03:52.587Z,10.51
2018-09-27T03:06:20.707Z,10.51
2018-09-27T03:08:48.795Z,10.51
2018-09-27T03:11:16.902Z,10.50
2018-09-27T03:13:45.017Z,10.47
2018-09-27T03:16:13.085Z,10.46
2018-09-27T03:18:41.270Z,10.44
2018-09-27T03:21:09.384Z,10.43
2018-09-27T03:23:37.473Z,10.44
2018-09-27T03:26:05.891Z,10.45
2018-09-27T03:28:33.976Z,10.44
2018-09-27T03:31:02.103Z,10.44
2018-09-27T03:36:03.777Z,10.46
2018-09-27T03:38:31.864Z,10.46
2018-09-27T03:40:59.946Z,10.44
2018-09-27T03:43:28.035Z,10.45
2018-09-27T03:45:56.120Z,10.44
2018-09-27T03:48:24.212Z,10.43
2018-09-27T03:50:52.298Z,10.42
2018-09-27T03:53:20.502Z,10.42
2018-09-27T03:55:48.588Z,10.42
2018-09-27T03:58:16.679Z,10.41
2018-09-27T04:00:44.768Z,10.41
2018-09-27T04:03:12.948Z,10.41
2018-09-27T04:05:40.970Z,10.38
2018-09-27T04:08:09.069Z,10.37
2018-09-27T04:10:37.148Z,10.36
2018-09-27T04:13:05.244Z,10.32
2018-09-27T04:15:33.340Z,10.29
2018-09-27T04:18:01.435Z,10.28
2018-09-27T04:20:29.568Z,10.29
2018-09-27T04:22:57.659Z,10.28
2018-09-27T04:25:25.746Z,10.28
2018-09-27T04:27:53.935Z,10.30
2018-09-27T04:30:22.014Z,10.30
2018-09-27T04:32:50.095Z,10.31
2018-09-27T04:35:18.224Z,10.30
2018-09-27T04:37:46.310Z,10.29
2018-09-27T04:40:14.486Z,10.27
2018-09-27T04:42:42.591Z,10.25
2018-09-27T04:45:10.747Z,10.25
2018-09-27T04:47:38.829Z,10.26
2018-09-27T04:50:06.997Z,10.29
2018-09-27T04:52:35.151Z,10.30
2018-09-27T04:55:03.375Z,10.33
2018-09-27T04:57:31.485Z,10.36
2018-09-27T04:59:59.626Z,10.39
2018-09-27T05:02:27.758Z,10.42
2018-09-27T05:04:55.895Z,10.45
2018-09-27T05:07:24.009Z,10.46
2018-09-27T05:09:52.136Z,10.44
2018-09-27T05:12:20.253Z,10.39
2018-09-27T05:14:48.386Z,10.30
2018-09-27T05:17:16.513Z,10.24
2018-09-27T05:19:44.735Z,10.09
2018-09-27T05:22:12.870Z,10.04
2018-09-27T05:24:40.983Z,9.93
2018-09-27T05:27:09.231Z,9.91
2018-09-27T05:29:37.317Z,9.91
2018-09-27T05:32:05.847Z,9.93
2018-09-27T05:34:33.961Z,9.99
2018-09-27T05:37:02.090Z,9.67
2018-09-27T05:39:30.213Z,9.99
2018-09-27T05:41:58.318Z,9.98
2018-09-27T05:44:26.432Z,9.88
2018-09-27T05:46:54.681Z,9.88
2018-09-27T05:49:22.826Z,9.79
2018-09-27T05:51:50.921Z,9.72
2018-09-27T05:54:19.030Z,9.69
2018-09-27T05:56:47.196Z,9.64
2018-09-27T05:59:15.305Z,9.60
2018-09-27T06:01:43.462Z,9.64
2018-09-27T06:04:11.675Z,9.61
2018-09-27T06:06:39.818Z,9.54
2018-09-27T06:09:10.701Z,9.52
2018-09-27T06:11:38.866Z,9.51
2018-09-27T06:14:07.560Z,9.53
2018-09-27T06:16:36.545Z,9.58
2018-09-27T06:19:04.677Z,9.68
2018-09-27T06:21:32.825Z,9.69
2018-09-27T06:24:00.942Z,9.74
2018-09-27T06:26:29.453Z,9.82
2018-09-27T06:28:57.591Z,9.88
2018-09-27T06:31:25.841Z,9.95
2018-09-27T06:33:54.045Z,10.10
2018-09-27T06:36:22.218Z,10.08
2018-09-27T06:38:50.356Z,9.98
2018-09-27T06:41:18.564Z,9.95
2018-09-27T06:43:46.640Z,10.04
2018-09-27T06:46:14.763Z,10.10
2018-09-27T06:48:42.947Z,10.14
2018-09-27T06:51:11.019Z,10.20
2018-09-27T06:53:39.146Z,10.18
2018-09-27T06:56:07.485Z,9.99
2018-09-27T06:58:35.575Z,9.97
2018-09-27T07:01:03.809Z,10.03
2018-09-27T07:03:31.878Z,10.10
2018-09-27T07:06:00.159Z,10.15
2018-09-27T07:08:28.376Z,10.19
2018-09-27T07:10:56.414Z,10.24
2018-09-27T07:13:24.531Z,10.30
2018-09-27T07:15:52.702Z,10.29
2018-09-27T07:18:20.792Z,10.25
2018-09-27T07:20:48.926Z,10.18
2018-09-27T07:23:17.030Z,10.13
2018-09-27T07:25:45.154Z,10.12
2018-09-27T07:28:13.382Z,10.14
2018-09-27T07:30:41.502Z,10.14
2018-09-27T07:33:09.624Z,10.11
2018-09-27T07:35:37.747Z,10.11
2018-09-27T07:38:05.963Z,10.11
2018-09-27T07:40:34.092Z,10.19
2018-09-27T07:43:02.376Z,10.17
2018-09-27T07:45:30.564Z,10.20
2018-09-27T07:47:58.661Z,10.20
2018-09-27T07:50:27.011Z,10.23
2018-09-27T07:52:55.094Z,10.28
2018-09-27T07:55:23.229Z,10.26
2018-09-27T07:57:51.379Z,10.29
2018-09-27T08:00:19.496Z,10.36
2018-09-27T08:02:47.717Z,10.48
2018-09-27T08:05:15.793Z,10.52
2018-09-27T08:07:43.921Z,10.61
2018-09-27T08:10:12.174Z,10.65
2018-09-27T08:12:40.274Z,10.70
2018-09-27T08:15:08.423Z,10.83
2018-09-27T08:17:36.598Z,10.88
2018-09-27T08:20:04.708Z,10.98
2018-09-27T08:22:32.891Z,11.08
2018-09-27T08:25:00.987Z,11.18
2018-09-27T08:27:29.169Z,11.23
2018-09-27T08:29:57.338Z,11.34
2018-09-27T08:32:25.502Z,11.41
2018-09-27T08:34:53.613Z,11.51
2018-09-27T08:37:21.701Z,11.61
2018-09-27T08:39:49.830Z,11.73
2018-09-27T08:42:17.955Z,11.87
2018-09-27T08:44:46.179Z,11.95
2018-09-27T08:47:14.199Z,12.06
2018-09-27T08:49:42.330Z,12.18
2018-09-27T08:52:10.461Z,12.28
2018-09-27T08:54:38.739Z,12.40
2018-09-27T08:57:07.085Z,12.51
2018-09-27T08:59:35.195Z,12.61
2018-09-27T09:02:03.352Z,12.73
2018-09-27T09:04:31.505Z,12.84
2018-09-27T09:06:59.656Z,12.89
2018-09-27T09:09:27.853Z,13.04
2018-09-27T09:11:55.921Z,13.13
2018-09-27T09:14:24.037Z,13.21
2018-09-27T09:16:52.344Z,13.35
2018-09-27T09:19:20.469Z,13.46
2018-09-27T09:21:48.623Z,13.55
2018-09-27T09:24:16.880Z,13.69
2018-09-27T09:26:45.009Z,13.81
2018-09-27T09:29:13.151Z,13.91
2018-09-27T09:31:41.290Z,14.01
2018-09-27T09:34:09.479Z,14.14
2018-09-27T09:36:37.586Z,14.23
2018-09-27T09:39:07.319Z,14.37
2018-09-27T09:41:35.465Z,14.44
2018-09-27T09:44:03.630Z,14.56
2018-09-27T09:46:31.755Z,14.67
2018-09-27T09:48:59.842Z,14.77
2018-09-27T09:51:27.955Z,14.89
2018-09-27T09:53:56.084Z,15.02
2018-09-27T09:56:24.200Z,15.12
2018-09-27T09:58:52.319Z,15.23
2018-09-27T10:01:20.527Z,15.33
2018-09-27T10:03:48.681Z,15.44
2018-09-27T10:06:16.882Z,15.54
2018-09-27T10:08:45.061Z,15.64
2018-09-27T10:11:13.230Z,15.75
2018-09-27T10:13:41.345Z,15.84
2018-09-27T10:16:09.504Z,15.98
2018-09-27T10:18:37.583Z,16.06
2018-09-27T10:21:05.695Z,16.18
2018-09-27T10:23:33.881Z,16.29
2018-09-27T10:26:02.002Z,16.45
2018-09-27T10:28:30.109Z,16.58
2018-09-27T10:30:58.228Z,16.63
2018-09-27T10:33:26.378Z,16.74
2018-09-27T10:35:54.458Z,16.88
2018-09-27T10:38:22.564Z,16.98
2018-09-27T10:40:50.650Z,17.07
2018-09-27T10:43:18.765Z,17.22
2018-09-27T10:45:46.851Z,17.29
2018-09-27T10:48:14.931Z,17.41
2018-09-27T10:50:43.073Z,17.53
2018-09-27T10:53:11.152Z,17.71
2018-09-27T10:55:39.230Z,17.83
2018-09-27T10:58:08.001Z,17.99
2018-09-27T11:00:36.077Z,18.02
2018-09-27T11:03:04.162Z,18.23
2018-09-27T11:05:32.301Z,18.35
2018-09-27T11:08:00.338Z,18.40
2018-09-27T11:10:28.418Z,18.48
2018-09-27T11:12:56.527Z,18.55
2018-09-27T11:15:24.619Z,18.66
2018-09-27T11:17:52.718Z,18.73
2018-09-27T11:20:20.816Z,18.80
2018-09-27T11:22:48.902Z,18.88
2018-09-27T11:25:16.985Z,18.97
2018-09-27T11:27:45.228Z,19.16
2018-09-27T11:30:18.816Z,19.17
2018-09-27T11:32:47.884Z,19.22
2018-09-27T11:35:15.971Z,19.28
2018-09-27T11:37:44.061Z,19.34
2018-09-27T11:40:12.135Z,19.44
2018-09-27T11:42:40.545Z,19.56
2018-09-27T11:45:09.088Z,19.60
2018-09-27T11:47:37.187Z,19.65
2018-09-27T11:50:05.638Z,19.73
2018-09-27T11:52:33.630Z,19.79
2018-09-27T11:55:01.817Z,19.86
2018-09-27T11:57:29.881Z,19.91
2018-09-27T11:59:57.979Z,19.99
2018-09-27T12:02:26.108Z,20.08
2018-09-27T12:04:54.399Z,20.14
2018-09-27T12:07:22.545Z,20.19
2018-09-27T12:09:50.638Z,20.28
2018-09-27T12:12:20.559Z,20.33
2018-09-27T12:14:48.637Z,20.41
2018-09-27T12:17:16.875Z,20.50
2018-09-27T12:19:45.005Z,20.54
2018-09-27T12:22:13.061Z,20.61
2018-09-27T12:24:41.177Z,20.70
2018-09-27T12:27:09.274Z,20.72
2018-09-27T12:29:37.361Z,20.78
2018-09-27T12:32:05.451Z,20.80
2018-09-27T12:34:33.545Z,20.88
2018-09-27T12:37:01.643Z,20.92
2018-09-27T12:39:29.752Z,20.98
2018-09-27T12:41:57.957Z,21.07
2018-09-27T12:44:25.894Z,21.10
2018-09-27T12:46:54.024Z,21.14
2018-09-27T12:49:22.067Z,21.18
2018-09-27T12:51:50.305Z,21.21
2018-09-27T12:54:18.279Z,21.25
2018-09-27T12:56:46.371Z,21.33
2018-09-27T12:59:14.450Z,21.38
2018-09-27T13:01:42.608Z,21.47
2018-09-27T13:04:10.681Z,21.51
2018-09-27T13:06:38.713Z,21.54
2018-09-27T13:09:07.958Z,21.59
2018-09-27T13:11:40.641Z,21.62
2018-09-27T13:14:04.097Z,21.72
2018-09-27T13:16:32.169Z,21.74
2018-09-27T13:19:00.378Z,21.80
2018-09-27T13:21:28.418Z,21.84
2018-09-27T13:23:56.545Z,21.88
2018-09-27T13:26:24.650Z,21.92
2018-09-27T13:28:52.942Z,21.95
2018-09-27T13:31:21.029Z,21.98
2018-09-27T13:33:49.346Z,22.04
2018-09-27T13:36:17.391Z,22.12
2018-09-27T13:38:45.594Z,22.12
2018-09-27T13:41:13.668Z,22.15
2018-09-27T13:43:41.763Z,22.17
2018-09-27T13:46:09.966Z,22.18
2018-09-27T13:48:38.251Z,22.20
2018-09-27T13:51:06.424Z,22.22
2018-09-27T13:53:34.454Z,22.24
2018-09-27T13:56:02.562Z,22.26
2018-09-27T13:58:30.731Z,22.27
2018-09-27T14:00:58.802Z,22.30
2018-09-27T14:03:26.857Z,22.30
2018-09-27T14:05:55.360Z,22.33
2018-09-27T14:08:23.450Z,22.39
2018-09-27T14:10:51.530Z,22.40
2018-09-27T14:13:19.725Z,22.44
2018-09-27T14:15:47.802Z,22.45
2018-09-27T14:18:16.028Z,22.50
2018-09-27T14:20:44.138Z,22.50
2018-09-27T14:23:12.285Z,22.54
2018-09-27T14:25:40.425Z,22.55
2018-09-27T14:28:08.490Z,22.55
2018-09-27T14:30:36.571Z,22.57
2018-09-27T14:33:04.659Z,22.57
2018-09-27T14:35:32.760Z,22.59
2018-09-27T14:38:00.884Z,22.58
2018-09-27T14:40:28.964Z,22.61
2018-09-27T14:42:57.132Z,22.63
2018-09-27T14:45:25.317Z,22.64
2018-09-27T14:47:53.521Z,22.65
2018-09-27T14:50:21.611Z,22.66
2018-09-27T14:52:49.610Z,22.65
2018-09-27T14:55:17.701Z,22.66
2018-09-27T14:57:45.859Z,22.66
2018-09-27T15:00:13.963Z,22.66
2018-09-27T15:02:42.117Z,22.64
2018-09-27T15:05:10.294Z,22.63
2018-09-27T15:07:38.380Z,22.65
2018-09-27T15:10:06.687Z,22.64
2018-09-27T15:12:34.822Z,22.62
2018-09-27T15:15:02.909Z,22.62
2018-09-27T15:17:31.048Z,22.60
2018-09-27T15:19:59.156Z,22.57
2018-09-27T15:22:27.466Z,22.55
2018-09-27T15:24:55.518Z,22.53
2018-09-27T15:27:23.650Z,22.52
2018-09-27T15:29:51.846Z,22.50
2018-09-27T15:32:19.998Z,22.48
2018-09-27T15:34:48.185Z,22.45
2018-09-27T15:37:16.262Z,22.44
2018-09-27T15:39:44.360Z,22.40
2018-09-27T15:42:12.499Z,22.36
2018-09-27T15:44:40.673Z,22.31
2018-09-27T15:47:08.804Z,22.29
2018-09-27T15:49:37.111Z,22.22
2018-09-27T15:52:05.311Z,22.20
2018-09-27T15:54:33.390Z,22.17
2018-09-27T15:57:01.479Z,22.13
2018-09-27T15:59:29.566Z,22.08
2018-09-27T16:01:57.721Z,22.02
2018-09-27T16:04:25.980Z,21.93
2018-09-27T16:06:54.153Z,21.84
2018-09-27T16:09:22.318Z,21.70
2018-09-27T16:11:50.435Z,21.61
2018-09-27T16:14:18.486Z,21.52
2018-09-27T16:16:46.578Z,21.43
2018-09-27T16:19:14.671Z,21.32
2018-09-27T16:21:42.802Z,21.22
2018-09-27T16:24:10.886Z,21.13
2018-09-27T16:26:38.973Z,21.00
2018-09-27T16:29:07.239Z,20.84
2018-09-27T16:31:35.389Z,20.71
2018-09-27T16:34:03.553Z,20.59
2018-09-27T16:36:31.646Z,20.44
2018-09-27T16:38:59.810Z,20.29
2018-09-27T16:41:28.055Z,20.15
2018-09-27T16:43:56.165Z,20.03
2018-09-27T16:46:24.338Z,19.92
2018-09-27T16:48:52.517Z,19.83
2018-09-27T16:51:20.669Z,19.73
2018-09-27T16:53:48.766Z,19.62
2018-09-27T16:56:16.842Z,19.51
2018-09-27T16:58:45.013Z,19.38
2018-09-27T17:01:13.430Z,19.31
2018-09-27T17:03:41.557Z,19.21
2018-09-27T17:06:09.657Z,19.10
2018-09-27T17:08:37.919Z,19.00
2018-09-27T17:11:06.225Z,18.91
2018-09-27T17:13:34.493Z,18.81
2018-09-27T17:16:03.371Z,18.68
2018-09-27T17:18:31.501Z,18.60
2018-09-27T17:20:59.593Z,18.49
2018-09-27T17:23:27.765Z,18.40
2018-09-27T17:25:55.831Z,18.31
2018-09-27T17:28:24.027Z,18.23
2018-09-27T17:30:52.105Z,18.15
2018-09-27T17:33:20.289Z,18.06
2018-09-27T17:35:48.403Z,17.97
2018-09-27T17:38:16.498Z,17.90
2018-09-27T17:40:44.622Z,17.83
2018-09-27T17:43:12.793Z,17.74
2018-09-27T17:45:41.005Z,17.66
2018-09-27T17:48:09.077Z,17.57
2018-09-27T17:50:37.203Z,17.50
2018-09-27T17:53:05.362Z,17.43
2018-09-27T17:55:33.472Z,17.35
2018-09-27T17:58:01.509Z,17.28
2018-09-27T18:00:29.605Z,17.23
2018-09-27T18:02:57.751Z,17.17
2018-09-27T18:05:26.008Z,17.11
2018-09-27T18:07:54.766Z,17.05
2018-09-27T18:10:22.913Z,16.97
2018-09-27T18:12:51.077Z,16.91
2018-09-27T18:15:19.227Z,16.81
2018-09-27T18:17:47.427Z,16.75
2018-09-27T18:20:15.838Z,16.67
2018-09-27T18:22:44.011Z,16.59
2018-09-27T18:25:12.150Z,16.53
2018-09-27T18:27:40.247Z,16.46
2018-09-27T18:30:08.338Z,16.42
2018-09-27T18:32:36.422Z,16.36
2018-09-27T18:35:04.645Z,16.31
2018-09-27T18:37:32.901Z,16.27
2018-09-27T18:40:01.009Z,16.22
2018-09-27T18:42:29.244Z,16.14
2018-09-27T18:44:57.327Z,16.08
2018-09-27T18:47:25.643Z,16.01
2018-09-27T18:49:53.800Z,15.96
2018-09-27T18:52:21.972Z,15.92
2018-09-27T18:54:50.045Z,15.86
2018-09-27T18:57:18.138Z,15.79
2018-09-27T18:59:46.271Z,15.72
2018-09-27T19:02:14.366Z,15.67
2018-09-27T19:04:42.462Z,15.60
2018-09-27T19:07:10.613Z,15.55
2018-09-27T19:09:38.779Z,15.50
2018-09-27T19:12:07.253Z,15.45
2018-09-27T19:14:35.437Z,15.41
2018-09-27T19:17:03.733Z,15.35
2018-09-27T19:19:31.921Z,15.31
2018-09-27T19:22:00.062Z,15.26
2018-09-27T19:24:28.163Z,15.22
2018-09-27T19:26:56.322Z,15.16
2018-09-27T19:29:24.478Z,15.11
2018-09-27T19:31:52.688Z,15.06
2018-09-27T19:34:20.774Z,15.00
2018-09-27T19:36:48.865Z,14.94
2018-09-27T19:39:17.023Z,14.89
2018-09-27T19:41:45.049Z,14.84
2018-09-27T19:44:13.151Z,14.78
2018-09-27T19:46:41.326Z,14.75
2018-09-27T19:49:09.662Z,14.72
2018-09-27T19:51:37.891Z,14.69
2018-09-27T19:54:06.027Z,14.66
2018-09-27T19:56:34.155Z,14.63
2018-09-27T19:59:02.270Z,14.58
2018-09-27T20:01:30.362Z,14.55
2018-09-27T20:03:58.527Z,14.51
2018-09-27T20:06:26.685Z,14.47
2018-09-27T20:08:54.721Z,14.44
2018-09-27T20:11:22.846Z,14.40
2018-09-27T20:13:51.026Z,14.38
2018-09-27T20:16:19.340Z,14.35
2018-09-27T20:18:47.271Z,14.33
2018-09-27T20:21:16.353Z,14.29
2018-09-27T20:23:44.456Z,14.25
2018-09-27T20:26:12.533Z,14.19
2018-09-27T20:28:40.634Z,14.14
2018-09-27T20:31:08.748Z,14.09
2018-09-27T20:33:36.837Z,14.03
2018-09-27T20:36:04.915Z,13.99
2018-09-27T20:38:33.105Z,13.92
2018-09-27T20:41:01.235Z,13.88
2018-09-27T20:43:29.320Z,13.87
2018-09-27T20:45:57.401Z,13.82
2018-09-27T20:48:25.596Z,13.82
2018-09-27T20:50:53.749Z,13.78
2018-09-27T20:53:21.926Z,13.75
2018-09-27T20:55:49.998Z,13.72
2018-09-27T20:58:18.088Z,13.69
2018-09-27T21:00:46.230Z,13.67
2018-09-27T21:03:14.384Z,13.64
2018-09-27T21:05:42.425Z,13.62
2018-09-27T21:08:10.513Z,13.58
2018-09-27T21:10:38.607Z,13.56
2018-09-27T21:13:06.802Z,13.51
2018-09-27T21:15:34.986Z,13.48
2018-09-27T21:18:03.061Z,13.45
2018-09-27T21:20:31.144Z,13.43
2018-09-27T21:22:59.292Z,13.41
2018-09-27T21:25:27.410Z,13.38
2018-09-27T21:27:55.487Z,13.39
2018-09-27T21:30:23.576Z,13.36
2018-09-27T21:32:51.671Z,13.35
2018-09-27T21:35:19.764Z,13.35
2018-09-27T21:37:47.850Z,13.32
2018-09-27T21:40:15.949Z,13.30
2018-09-27T21:42:44.037Z,13.28
2018-09-27T21:45:12.121Z,13.25
2018-09-27T21:47:40.205Z,13.23
2018-09-27T21:50:08.436Z,13.20
2018-09-27T21:52:36.401Z,13.18
2018-09-27T21:55:04.487Z,13.16
2018-09-27T21:57:32.575Z,13.13
2018-09-27T22:00:00.671Z,13.08
2018-09-27T22:02:28.761Z,13.06
2018-09-27T22:04:56.945Z,13.03
2018-09-27T22:07:26.378Z,13.01
2018-09-27T22:09:55.692Z,12.97
2018-09-27T22:12:23.790Z,12.92
2018-09-27T22:14:52.009Z,12.88
2018-09-27T22:17:20.093Z,12.83
2018-09-27T22:19:48.173Z,12.79
2018-09-27T22:22:16.651Z,12.76
2018-09-27T22:24:44.834Z,12.72
2018-09-27T22:27:12.916Z,12.69
2018-09-27T22:29:41.052Z,12.64
2018-09-27T22:32:09.128Z,12.61
2018-09-27T22:34:37.218Z,12.57
2018-09-27T22:37:05.407Z,12.55
2018-09-27T22:39:33.548Z,12.53
2018-09-27T22:42:01.665Z,12.49
2018-09-27T22:44:29.776Z,12.46
2018-09-27T22:46:57.864Z,12.45
2018-09-27T22:49:25.941Z,12.44
2018-09-27T22:51:54.025Z,12.42
2018-09-27T22:54:22.108Z,12.39
2018-09-27T22:56:50.200Z,12.36
2018-09-27T22:59:18.269Z,12.32
2018-09-27T23:01:46.426Z,12.31
2018-09-27T23:04:14.562Z,12.28
2018-09-27T23:06:42.686Z,12.25
2018-09-27T23:09:10.779Z,12.22
2018-09-27T23:11:38.869Z,12.20
2018-09-27T23:14:06.949Z,12.18
2018-09-27T23:16:35.063Z,12.14
2018-09-27T23:19:03.353Z,12.12
2018-09-27T23:21:31.442Z,12.10
2018-09-27T23:23:59.699Z,12.08
2018-09-27T23:26:28.189Z,12.07
2018-09-27T23:28:56.278Z,12.06
2018-09-27T23:31:24.381Z,12.04
2018-09-27T23:33:52.461Z,12.02
2018-09-27T23:36:20.649Z,12.01
2018-09-27T23:38:48.738Z,11.99
2018-09-27T23:41:16.828Z,11.98
2018-09-27T23:43:44.905Z,11.98
2018-09-27T23:46:12.997Z,11.94
2018-09-27T23:48:41.102Z,11.95
2018-09-27T23:51:09.188Z,11.96
2018-09-27T23:53:37.304Z,11.95
2018-09-27T23:56:05.392Z,11.95
2018-09-27T23:58:33.513Z,11.94
